TimeAWST,TemperatureF,Dew PointF,Humidity,Sea Level PressureIn,VisibilityMPH,Wind Direction,Wind SpeedMPH,Gust SpeedMPH,PrecipitationIn,Events,Conditions,WindDirDegrees,DateUTC
12:00 AM,78,65,55,29.65,,South,5.8,,,,,190,2013-03-03 16:00:00
12:00 AM,77.0,64.4,65,29.65,-9999.0,South,5.8,-,N/A,,Unknown,190,2013-03-03 16:00:00
1:00 AM,77.0,68.0,74,29.65,-9999.0,SSW,9.2,-,N/A,,Unknown,200,2013-03-03 17:00:00
2:00 AM,75,68,74,29.65,,South,8.1,,,,,170,2013-03-03 18:00:00
2:00 AM,75.2,68.0,78,29.65,-9999.0,South,8.1,-,N/A,,Unknown,170,2013-03-03 18:00:00
3:00 AM,73,67,76,29.65,,SSW,6.9,,,,,200,2013-03-03 19:00:00
3:00 AM,73.4,68.0,83,29.65,-9999.0,SSW,6.9,-,N/A,,Unknown,200,2013-03-03 19:00:00
4:00 AM,71.6,68.0,88,29.65,-9999.0,South,5.8,-,N/A,,Unknown,170,2013-03-03 20:00:00
5:00 AM,70,63,71,29.67,,ESE,2.3,,,,,110,2013-03-03 21:00:00
5:00 AM,69.8,62.6,78,29.68,-9999.0,ESE,2.3,-,N/A,,Unknown,110,2013-03-03 21:00:00
6:00 AM,73,70,87,29.69,,SW,4.6,,,,,230,2013-03-03 22:00:00
6:00 AM,73.4,69.8,88,29.71,-9999.0,SW,4.6,-,N/A,,Unknown,230,2013-03-03 22:00:00
7:00 AM,80.6,62.6,54,29.71,-9999.0,West,2.3,-,N/A,,Unknown,270,2013-03-03 23:00:00
8:00 AM,89,55,22,29.70,,North,10.4,,,,,350,2013-03-04 00:00:00
8:00 AM,89.6,55.4,31,29.71,-9999.0,North,10.4,-,N/A,,Unknown,350,2013-03-04 00:00:00
9:00 AM,92,59,23,29.70,,NNW,9.2,,,,,340,2013-03-04 01:00:00
9:00 AM,91.4,59.0,34,29.71,-9999.0,NNW,9.2,-,N/A,,Unknown,340,2013-03-04 01:00:00
10:00 AM,93.2,59.0,32,29.68,-9999.0,NNW,11.5,-,N/A,,Unknown,330,2013-03-04 02:00:00
11:00 AM,96,61,22,29.66,,West,11.5,,,,,270,2013-03-04 03:00:00
11:00 AM,96.8,60.8,30,29.68,-9999.0,West,11.5,-,N/A,,Unknown,270,2013-03-04 03:00:00
12:00 PM,99,61,19,29.65,,WNW,8.1,,,,,300,2013-03-04 04:00:00
12:00 PM,98.6,60.8,29,29.65,-9999.0,WNW,8.1,-,N/A,,Unknown,300,2013-03-04 04:00:00
1:00 PM,98.6,60.8,29,29.62,-9999.0,SSE,6.9,-,N/A,,Unknown,160,2013-03-04 05:00:00
2:00 PM,100,58,17,29.62,,South,4.6,,,,,190,2013-03-04 06:00:00
2:00 PM,100.4,59.0,25,29.62,-9999.0,South,4.6,-,N/A,,Unknown,190,2013-03-04 06:00:00
3:00 PM,101,58,16,29.61,,South,5.8,,,,,170,2013-03-04 07:00:00
3:00 PM,102.2,57.2,22,29.62,-9999.0,South,5.8,-,N/A,,Unknown,170,2013-03-04 07:00:00
4:00 PM,100.4,57.2,24,29.62,-9999.0,South,4.6,-,N/A,,Unknown,180,2013-03-04 08:00:00
4:28 PM,96.8,59.0,28,29.62,-9999.0,SE,17.3,-,N/A,,Unknown,140,2013-03-04 08:28:00
5:00 PM,94,60,22,29.63,,SSE,21.9,,,,,150,2013-03-04 09:00:00
5:00 PM,93.2,59.0,32,29.62,-9999.0,SSE,21.9,-,N/A,,Unknown,150,2013-03-04 09:00:00
6:00 PM,88,60,29,29.66,,SSE,19.6,,,,,150,2013-03-04 10:00:00
6:00 PM,87.8,60.8,40,29.65,-9999.0,SSE,19.6,-,N/A,,Unknown,150,2013-03-04 10:00:00
7:00 PM,86.0,60.8,43,29.71,-9999.0,South,15.0,-,N/A,,Unknown,170,2013-03-04 11:00:00
8:00 PM,82,60,37,29.71,,South,13.8,,,,,170,2013-03-04 12:00:00
8:00 PM,82.4,60.8,48,29.71,-9999.0,South,13.8,-,N/A,,Unknown,170,2013-03-04 12:00:00
9:00 PM,80,58,36,29.72,,South,13.8,,,,,170,2013-03-04 13:00:00
9:00 PM,80.6,57.2,45,29.71,-9999.0,South,13.8,-,N/A,,Unknown,170,2013-03-04 13:00:00
10:00 PM,77.0,59.0,54,29.74,-9999.0,South,12.7,-,N/A,,Unknown,190,2013-03-04 14:00:00
11:00 PM,76,59,46,29.73,,South,12.7,,,,,180,2013-03-04 15:00:00
11:00 PM,75.2,59.0,57,29.74,-9999.0,South,12.7,-,N/A,,Unknown,180,2013-03-04 15:00:00